Time;durP1;ratioP1;P1;durP2;ratioP2;P2;SDS_P1;SDS_P2;PMS_P1;PMS_P2;Temp;Humidity;BMP_temperature;BMP_pressure;BME280_temperature;BME280_humidity;BME280_pressure;Samples;Min_cycle;Max_cycle;Signal;HPM_P1;HPM_P2
2022/11/08 00:03:21;;;;;;;0.10;0.10;;;8.90;91.00;;;;;;4959002;29;20075;-70
2022/11/08 00:14:30;;;;;;;0.20;0.20;;;8.60;92.00;;;;;;4958804;29;20079;-70
2022/11/08 00:17:05;;;;;;;0.00;0.00;;;8.60;92.40;;;;;;4957640;28;20058;-70
2022/11/08 00:22:58;;;;;;;0.40;0.30;;;8.60;91.20;;;;;;4959165;29;20046;-70
2022/11/08 00:25:39;;;;;;;0.00;0.00;;;8.60;91.40;;;;;;4941396;29;20043;-70
2022/11/08 00:29:04;;;;;;;0.15;0.10;;;8.60;91.30;;;;;;4958256;29;20055;-70
2022/11/08 00:31:30;;;;;;;0.17;0.17;;;8.50;91.50;;;;;;4958202;29;20063;-70
2022/11/08 00:34:42;;;;;;;0.13;0.13;;;8.50;92.70;;;;;;4958308;29;20105;-70
2022/11/08 00:37:18;;;;;;;0.13;0.10;;;8.50;92.60;;;;;;4958239;29;20024;-70
2022/11/08 00:39:53;;;;;;;0.00;0.00;;;8.60;92.50;;;;;;4958222;28;20408;-70
2022/11/08 00:42:18;;;;;;;0.57;0.30;;;8.60;92.60;;;;;;4958189;29;20086;-70
2022/11/08 00:45:03;;;;;;;1.23;0.38;;;8.60;92.00;;;;;;4958255;29;20023;-70
2022/11/08 00:47:38;;;;;;;0.65;0.30;;;8.70;92.00;;;;;;4941244;29;20031;-70
2022/11/08 00:50:13;;;;;;;0.10;0.10;;;8.70;92.00;;;;;;4958056;28;20039;-70
2022/11/08 00:52:48;;;;;;;0.10;0.10;;;8.70;92.00;;;;;;4958024;29;20019;-70
2022/11/08 00:55:22;;;;;;;0.10;0.10;;;8.70;91.70;;;;;;4958122;29;20027;-70
2022/11/08 00:57:57;;;;;;;0.20;0.17;;;8.70;91.10;;;;;;4958116;29;20020;-70
2022/11/08 01:03:57;;;;;;;0.65;0.47;;;8.70;90.50;;;;;;4958134;29;20039;-70
2022/11/08 01:06:32;;;;;;;0.20;0.20;;;8.60;90.60;;;;;;4957998;29;20035;-70
2022/11/08 01:09:07;;;;;;;0.88;0.80;;;8.50;91.00;;;;;;4957938;29;20036;-70
2022/11/08 01:11:33;;;;;;;1.90;0.30;;;8.50;91.30;;;;;;4957743;29;20027;-70
2022/11/08 01:14:17;;;;;;;0.22;0.13;;;8.50;92.10;;;;;;4958037;29;20046;-70
2022/11/08 01:16:52;;;;;;;0.93;0.65;;;8.50;92.10;;;;;;4958199;29;20372;-70
2022/11/08 01:19:27;;;;;;;0.88;0.13;;;8.50;92.50;;;;;;4957830;28;20023;-69
2022/11/08 01:21:52;;;;;;;1.02;0.93;;;8.50;93.30;;;;;;4941003;29;20079;-69
2022/11/08 01:24:37;;;;;;;0.40;0.40;;;8.40;93.40;;;;;;4941194;29;20027;-69
2022/11/08 01:27:11;;;;;;;0.52;0.35;;;8.50;92.90;;;;;;4957389;28;20082;-70
2022/11/08 01:29:46;;;;;;;0.10;0.10;;;8.50;93.00;;;;;;4961337;28;20027;-70
2022/11/08 01:32:12;;;;;;;0.10;0.10;;;8.50;93.00;;;;;;4961149;29;20086;-70
2022/11/08 01:34:56;;;;;;;0.25;0.15;;;8.40;93.30;;;;;;4961512;29;20308;-70
2022/11/08 01:37:31;;;;;;;0.57;0.43;;;8.40;94.00;;;;;;4961248;29;20032;-70
2022/11/08 01:40:06;;;;;;;0.30;0.20;;;8.40;93.70;;;;;;4961236;28;20047;-70
2022/11/08 01:42:32;;;;;;;0.52;0.43;;;8.30;93.50;;;;;;4944217;29;20043;-70
2022/11/08 01:45:54;;;;;;;1.60;0.57;;;8.30;93.80;;;;;;4961220;29;20408;-70
2022/11/08 01:48:29;;;;;;;0.70;0.50;;;8.20;94.40;;;;;;4961234;29;20298;-70
2022/11/08 01:50:58;;;;;;;0.83;0.40;;;8.30;94.60;;;;;;4960772;28;20035;-70
2022/11/08 01:53:33;;;;;;;0.65;0.35;;;8.40;94.50;;;;;;4944373;29;20027;-70
2022/11/08 01:56:09;;;;;;;0.90;0.57;;;8.40;94.60;;;;;;4960980;29;20027;-70
2022/11/08 01:58:48;;;;;;;0.35;0.35;;;8.40;94.80;;;;;;4960663;29;20283;-70
2022/11/08 02:01:14;;;;;;;0.40;0.30;;;8.40;94.80;;;;;;4961262;28;20349;-70
2022/11/08 02:03:49;;;;;;;0.88;0.13;;;8.40;95.20;;;;;;4943677;29;20324;-70
2022/11/08 02:06:25;;;;;;;0.83;0.40;;;8.40;94.50;;;;;;4960809;29;20063;-70
2022/11/08 02:09:03;;;;;;;0.43;0.38;;;8.40;94.20;;;;;;4943867;29;20458;-70
2022/11/08 02:11:30;;;;;;;0.22;0.20;;;8.30;94.10;;;;;;4960525;29;20028;-70
2022/11/08 02:14:09;;;;;;;1.00;0.28;;;8.30;93.60;;;;;;4960533;29;20090;-70
2022/11/08 02:16:44;;;;;;;0.10;0.10;;;8.30;92.20;;;;;;4943470;29;20086;-70
2022/11/08 02:19:50;;;;;;;4.07;0.20;;;8.40;91.60;;;;;;4960535;28;20023;-70
2022/11/08 02:22:27;;;;;;;0.00;0.00;;;8.50;91.30;;;;;;4960388;29;20309;-70
2022/11/08 02:25:03;;;;;;;1.65;0.30;;;8.60;90.20;;;;;;4960457;29;20066;-70
2022/11/08 02:28:28;;;;;;;0.10;0.10;;;8.60;90.50;;;;;;4960064;28;20075;-70
2022/11/08 02:35:25;;;;;;;2.22;0.35;;;8.50;92.10;;;;;;4960577;29;20431;-70
2022/11/08 02:38:51;;;;;;;0.10;0.10;;;8.30;91.60;;;;;;4942969;29;20046;-70
2022/11/08 02:41:17;;;;;;;0.10;0.00;;;8.30;90.30;;;;;;4959759;28;20031;-70
2022/11/08 02:43:51;;;;;;;0.50;0.30;;;8.40;90.50;;;;;;4960159;29;20085;-70
2022/11/08 02:46:26;;;;;;;0.28;0.28;;;8.50;89.50;;;;;;4960069;29;20035;-70
2022/11/08 02:49:02;;;;;;;0.32;0.28;;;8.60;89.70;;;;;;4960027;29;20490;-70
2022/11/08 02:51:28;;;;;;;;;;;8.70;89.20;;;;;;4960230;29;20444;-70
2022/11/08 02:54:09;;;;;;;0.10;0.10;;;8.70;88.90;;;;;;4959992;29;19911;-70
2022/11/08 02:56:43;;;;;;;0.20;0.20;;;8.70;89.50;;;;;;4959916;29;20035;-70
2022/11/08 02:59:18;;;;;;;0.20;0.17;;;8.70;89.60;;;;;;4959935;28;20019;-70
2022/11/08 03:01:44;;;;;;;1.20;0.30;;;8.70;89.90;;;;;;4959721;29;20035;-70
2022/11/08 03:04:28;;;;;;;0.63;0.45;;;8.70;90.60;;;;;;4959774;29;20436;-70
2022/11/08 03:07:03;;;;;;;1.15;1.05;;;8.60;91.10;;;;;;4959589;29;20058;-70
2022/11/08 03:13:06;;;;;;;2.08;0.52;;;8.70;90.30;;;;;;4959988;29;20150;-70
2022/11/08 03:15:40;;;;;;;0.10;0.10;;;8.60;89.90;;;;;;4959525;29;20049;-70
2022/11/08 03:18:15;;;;;;;0.13;0.10;;;8.60;90.70;;;;;;4959464;29;20066;-70
2022/11/08 03:20:40;;;;;;;0.20;0.20;;;8.50;91.30;;;;;;4959246;28;20035;-70
2022/11/08 03:23:24;;;;;;;0.00;0.00;;;8.50;91.00;;;;;;4959531;29;20412;-70
2022/11/08 03:26:04;;;;;;;0.10;0.10;;;8.30;91.30;;;;;;4942437;29;20035;-70
2022/11/08 03:28:39;;;;;;;0.40;0.10;;;8.10;92.10;;;;;;4959156;29;20051;-69
2022/11/08 03:31:05;;;;;;;0.52;0.30;;;8.10;92.40;;;;;;4958970;28;20063;-70
2022/11/08 03:33:46;;;;;;;0.40;0.30;;;8.20;91.90;;;;;;4959307;29;20336;-70
2022/11/08 03:36:20;;;;;;;0.63;0.30;;;8.20;91.80;;;;;;4959092;29;20081;-70
2022/11/08 03:38:55;;;;;;;0.55;0.35;;;8.10;92.10;;;;;;4959100;29;20028;-70
2022/11/08 03:41:21;;;;;;;0.10;0.10;;;8.10;91.90;;;;;;4958682;28;20380;-70
2022/11/08 03:44:30;;;;;;;0.10;0.10;;;8.10;91.70;;;;;;4959028;29;20027;-70
2022/11/08 03:47:05;;;;;;;0.30;0.20;;;8.00;92.70;;;;;;4958791;29;20031;-69
2022/11/08 03:52:54;;;;;;;2.35;0.30;;;7.90;94.40;;;;;;4959239;29;20359;-69
2022/11/08 03:55:29;;;;;;;0.25;0.25;;;7.90;94.40;;;;;;4941591;29;20118;-69
2022/11/08 03:58:04;;;;;;;0.13;0.13;;;7.90;94.80;;;;;;4958784;29;20041;-70
2022/11/08 04:00:30;;;;;;;0.10;0.10;;;7.90;94.50;;;;;;4958730;28;20038;-70
2022/11/08 04:03:05;;;;;;;0.10;0.10;;;7.90;93.90;;;;;;4958709;29;20023;-70
2022/11/08 04:05:39;;;;;;;0.13;0.13;;;8.00;93.20;;;;;;4958665;29;20027;-70
2022/11/08 04:08:14;;;;;;;0.10;0.10;;;8.00;92.80;;;;;;4941801;29;20031;-69
2022/11/08 04:10:40;;;;;;;0.00;0.00;;;8.10;91.50;;;;;;4941283;29;20038;-70
2022/11/08 04:16:21;;;;;;;0.68;0.40;;;8.10;90.80;;;;;;4958814;29;20062;-70
2022/11/08 04:21:55;;;;;;;1.65;0.20;;;8.30;90.60;;;;;;4958629;29;20046;-70
2022/11/08 04:24:33;;;;;;;1.48;0.40;;;8.30;89.30;;;;;;4958480;29;20038;-70
2022/11/08 04:27:07;;;;;;;0.20;0.20;;;8.50;89.70;;;;;;4958030;28;20070;-70
2022/11/08 04:32:55;;;;;;;0.75;0.30;;;8.70;86.10;;;;;;4958708;29;20109;-70
2022/11/08 04:35:31;;;;;;;0.93;0.30;;;8.90;84.60;;;;;;4958306;29;20027;-70
2022/11/08 04:38:05;;;;;;;0.65;0.43;;;9.10;83.90;;;;;;4958268;29;20032;-69
2022/11/08 04:40:31;;;;;;;0.52;0.30;;;9.20;84.90;;;;;;4941275;29;20046;-70
2022/11/08 04:43:06;;;;;;;0.40;0.40;;;9.40;85.30;;;;;;4958274;29;20444;-70
2022/11/08 04:45:41;;;;;;;0.00;0.00;;;9.60;83.70;;;;;;4958310;29;20024;-70
2022/11/08 04:48:17;;;;;;;0.43;0.22;;;9.80;81.30;;;;;;4958155;29;20557;-70
2022/11/08 04:50:43;;;;;;;0.38;0.20;;;9.80;82.50;;;;;;4958076;28;20399;-70
2022/11/08 04:53:24;;;;;;;0.20;0.20;;;9.70;83.40;;;;;;4958147;29;20055;-70
2022/11/08 04:56:04;;;;;;;0.20;0.15;;;9.50;84.80;;;;;;4941111;29;20051;-70
2022/11/08 04:58:55;;;;;;;0.10;0.10;;;9.40;85.20;;;;;;4957932;29;20114;-70
2022/11/08 05:01:31;;;;;;;0.30;0.30;;;9.20;85.90;;;;;;4958001;28;20031;-70
2022/11/08 05:04:09;;;;;;;1.35;0.20;;;9.10;86.80;;;;;;4960948;29;20035;-70
2022/11/08 05:06:44;;;;;;;0.20;0.10;;;9.00;87.60;;;;;;4944749;29;20034;-70
2022/11/08 05:12:32;;;;;;;0.10;0.10;;;9.10;85.10;;;;;;4961952;29;20123;-70
2022/11/08 05:15:07;;;;;;;0.40;0.28;;;9.10;84.50;;;;;;4961688;29;20050;-70
2022/11/08 05:17:42;;;;;;;0.22;0.10;;;9.10;85.40;;;;;;4961629;29;20454;-70
2022/11/08 05:23:29;;;;;;;0.17;0.17;;;9.10;85.60;;;;;;4961834;29;20034;-70
2022/11/08 05:26:05;;;;;;;0.13;0.10;;;9.10;83.30;;;;;;4961475;29;20019;-70
2022/11/08 05:28:39;;;;;;;0.10;0.10;;;9.30;83.50;;;;;;4961561;29;20121;-70
2022/11/08 05:31:06;;;;;;;0.10;0.10;;;9.40;81.90;;;;;;4961436;28;20079;-70
2022/11/08 05:33:51;;;;;;;0.55;0.13;;;9.50;82.00;;;;;;4961407;29;20065;-70
2022/11/08 05:36:27;;;;;;;0.10;0.10;;;9.60;81.60;;;;;;4961203;29;20082;-70
2022/11/08 05:39:03;;;;;;;0.10;0.10;;;9.70;81.70;;;;;;4961201;29;20038;-69
2022/11/08 05:41:29;;;;;;;0.22;0.22;;;9.80;80.70;;;;;;4961209;29;20027;-69
2022/11/08 05:44:10;;;;;;;0.10;0.03;;;9.80;80.60;;;;;;4961237;29;20035;-70
2022/11/08 05:46:45;;;;;;;0.10;0.10;;;9.80;81.10;;;;;;4961096;29;20027;-70
2022/11/08 05:52:32;;;;;;;0.75;0.20;;;9.50;82.90;;;;;;4961463;29;20042;-70
2022/11/08 05:55:07;;;;;;;0.05;0.00;;;9.30;84.30;;;;;;4960747;29;20416;-70
2022/11/08 05:57:42;;;;;;;0.10;0.10;;;9.10;85.70;;;;;;4961000;29;20035;-70
2022/11/08 06:03:30;;;;;;;0.22;0.20;;;8.60;86.90;;;;;;4961200;29;20422;-69
2022/11/08 06:06:08;;;;;;;0.05;0.05;;;8.40;88.50;;;;;;4943720;29;20079;-70
2022/11/08 06:08:43;;;;;;;0.10;0.10;;;8.20;89.50;;;;;;4960732;29;20034;-69
2022/11/08 06:11:13;;;;;;;0.00;0.00;;;8.20;90.10;;;;;;4960688;28;20039;-70
2022/11/08 06:13:52;;;;;;;0.90;0.30;;;8.20;90.50;;;;;;4959913;28;20023;-70
2022/11/08 06:16:27;;;;;;;0.20;0.20;;;8.10;91.10;;;;;;4960271;29;20463;-70
2022/11/08 06:19:02;;;;;;;0.30;0.17;;;8.10;92.40;;;;;;4960645;29;20031;-70
2022/11/08 06:21:28;;;;;;;0.40;0.30;;;8.10;92.80;;;;;;4960564;29;20440;-70
2022/11/08 06:24:40;;;;;;;0.10;0.10;;;8.20;92.60;;;;;;4943709;29;20034;-70
2022/11/08 06:28:05;;;;;;;0.10;0.10;;;8.30;92.20;;;;;;4960194;28;20055;-70
2022/11/08 06:30:30;;;;;;;0.30;0.20;;;8.40;92.00;;;;;;4960231;28;20478;-70
2022/11/08 06:33:14;;;;;;;0.55;0.40;;;8.50;91.50;;;;;;4960370;29;20031;-70
2022/11/08 06:35:50;;;;;;;0.00;0.00;;;8.70;91.10;;;;;;4960364;29;20446;-70
2022/11/08 06:38:25;;;;;;;3.30;0.75;;;8.90;91.90;;;;;;4960269;29;20324;-70
2022/11/08 06:44:25;;;;;;;0.73;0.35;;;9.00;91.00;;;;;;4960431;29;20114;-70
2022/11/08 06:47:00;;;;;;;1.20;0.50;;;9.20;90.70;;;;;;4960003;29;20114;-70
2022/11/08 06:49:36;;;;;;;0.20;0.13;;;9.30;91.60;;;;;;4960014;28;20435;-70
2022/11/08 06:52:03;;;;;;;0.75;0.43;;;9.40;92.00;;;;;;4942844;29;20046;-70
2022/11/08 06:54:47;;;;;;;0.73;0.40;;;9.40;91.40;;;;;;4959976;29;20411;-70
2022/11/08 06:57:22;;;;;;;2.22;1.27;;;9.50;90.60;;;;;;4943025;29;20118;-70
2022/11/08 06:59:57;;;;;;;2.88;0.60;;;9.50;90.40;;;;;;4959964;28;20491;-70
2022/11/08 07:02:22;;;;;;;1.00;0.70;;;9.60;90.40;;;;;;4959786;29;20043;-70
2022/11/08 07:05:06;;;;;;;2.28;0.80;;;9.70;90.00;;;;;;4959752;29;20443;-70
2022/11/08 07:07:41;;;;;;;12.00;0.70;;;9.80;89.20;;;;;;4959498;29;20035;-70
2022/11/08 07:10:16;;;;;;;1.95;0.95;;;9.90;90.70;;;;;;4959319;28;20320;-70
2022/11/08 07:13:20;;;;;;;0.80;0.50;;;10.00;90.40;;;;;;4942440;29;20035;-70
2022/11/08 07:15:59;;;;;;;3.72;0.50;;;10.10;89.70;;;;;;4950312;29;20340;-70
2022/11/08 07:18:34;;;;;;;0.35;0.28;;;10.20;88.40;;;;;;4959410;29;20055;-70
2022/11/08 07:24:31;;;;;;;0.30;0.10;;;10.40;86.90;;;;;;4959617;29;20106;-70
2022/11/08 07:27:06;;;;;;;0.63;0.40;;;10.40;86.40;;;;;;4958504;28;20066;-70
2022/11/08 07:32:57;;;;;;;0.38;0.28;;;10.50;86.30;;;;;;4959604;29;20082;-70
2022/11/08 07:35:43;;;;;;;0.82;0.52;;;10.50;86.70;;;;;;4942159;29;20031;-70
2022/11/08 07:38:18;;;;;;;1.52;0.63;;;10.50;87.20;;;;;;4959418;29;20468;-70
2022/11/08 07:40:44;;;;;;;0.60;0.40;;;10.50;87.50;;;;;;4959040;28;20062;-70
2022/11/08 07:43:26;;;;;;;0.57;0.50;;;10.60;86.80;;;;;;4959049;29;20031;-70
2022/11/08 07:46:01;;;;;;;0.50;0.40;;;10.70;87.10;;;;;;4959025;29;20063;-70
2022/11/08 07:48:36;;;;;;;0.85;0.25;;;10.70;86.60;;;;;;4958904;29;20496;-70
2022/11/08 07:51:02;;;;;;;0.32;0.20;;;10.80;84.50;;;;;;4941741;29;20039;-70
2022/11/08 07:57:50;;;;;;;0.52;0.43;;;10.80;84.60;;;;;;4959041;29;20043;-70
2022/11/08 08:04:16;;;;;;;0.03;0.00;;;10.80;86.40;;;;;;4959179;29;20061;-70
2022/11/08 08:06:51;;;;;;;0.10;0.10;;;10.80;86.30;;;;;;4958681;29;20042;-70
2022/11/08 08:12:48;;;;;;;0.80;0.22;;;11.00;88.20;;;;;;4958771;29;20435;-70
2022/11/08 08:15:23;;;;;;;0.45;0.38;;;11.20;89.70;;;;;;4958549;29;20428;-70
2022/11/08 08:18:00;;;;;;;0.43;0.43;;;11.30;89.50;;;;;;4958553;29;20027;-70
2022/11/08 08:20:26;;;;;;;0.43;0.30;;;11.50;87.50;;;;;;4958438;28;20432;-70
2022/11/08 08:23:01;;;;;;;0.63;0.40;;;11.40;88.20;;;;;;4958384;29;20062;-70
2022/11/08 08:25:35;;;;;;;0.68;0.28;;;11.40;89.50;;;;;;4958399;29;20170;-70
2022/11/08 08:28:10;;;;;;;0.63;0.43;;;11.40;87.00;;;;;;4957954;28;20435;-70
2022/11/08 08:30:37;;;;;;;0.40;0.20;;;11.30;86.80;;;;;;4958097;28;20332;-70
2022/11/08 08:33:20;;;;;;;0.05;0.05;;;11.20;84.90;;;;;;4958388;29;20311;-70
2022/11/08 08:35:55;;;;;;;0.80;0.30;;;11.10;85.00;;;;;;4958325;29;20448;-70
2022/11/08 08:38:31;;;;;;;0.68;0.35;;;11.00;86.50;;;;;;4957356;29;20055;-70
2022/11/08 08:44:34;;;;;;;0.10;0.10;;;10.90;84.30;;;;;;4958519;29;20033;-70
2022/11/08 08:47:09;;;;;;;0.55;0.30;;;11.00;84.80;;;;;;4941280;29;20039;-70
2022/11/08 08:53:09;;;;;;;0.38;0.30;;;11.00;85.60;;;;;;4958282;29;20098;-70
2022/11/08 08:55:43;;;;;;;0.60;0.45;;;11.10;86.70;;;;;;4958216;29;20368;-70
2022/11/08 08:58:19;;;;;;;0.80;0.65;;;11.30;86.90;;;;;;4958013;29;20030;-70
2022/11/08 09:00:45;;;;;;;0.35;0.25;;;11.40;85.10;;;;;;4958014;28;20042;-70
2022/11/08 09:04:07;;;;;;;1.42;0.85;;;11.60;84.40;;;;;;4958103;29;20023;-70
2022/11/08 09:06:41;;;;;;;0.45;0.32;;;12.00;83.30;;;;;;4957990;29;20039;-70
2022/11/08 09:09:16;;;;;;;2.83;0.68;;;12.50;82.70;;;;;;4957942;28;20102;-70
2022/11/08 09:11:42;;;;;;;1.08;0.65;;;12.80;82.10;;;;;;4957954;29;20069;-70
2022/11/08 09:14:17;;;;;;;0.68;0.52;;;13.40;80.60;;;;;;4957964;29;20436;-70
2022/11/08 09:16:51;;;;;;;1.57;0.43;;;14.20;79.00;;;;;;4957753;29;20027;-70
2022/11/08 09:22:39;;;;;;;0.98;0.77;;;15.60;76.40;;;;;;4958404;29;20467;-70
2022/11/08 09:25:14;;;;;;;0.77;0.57;;;16.50;73.60;;;;;;4957821;29;20023;-69
2022/11/08 09:28:38;;;;;;;0.77;0.52;;;17.00;72.20;;;;;;4957502;28;20056;-68
2022/11/08 09:41:59;;;;;;;1.48;0.88;;;18.40;69.00;;;;;;4958100;29;20067;-68
2022/11/08 09:45:11;;;;;;;1.10;0.65;;;18.70;67.20;;;;;;4957815;29;20387;-68
2022/11/08 09:47:48;;;;;;;1.60;1.15;;;18.70;66.50;;;;;;4957814;29;20031;-68
2022/11/08 09:54:05;;;;;;;1.05;0.60;;;19.00;68.80;;;;;;4961391;29;20046;-68
2022/11/08 09:56:40;;;;;;;0.82;0.50;;;19.20;67.50;;;;;;4960890;29;20380;-68
2022/11/08 10:02:28;;;;;;;0.68;0.28;;;19.30;67.60;;;;;;4961282;29;20081;-68
2022/11/08 10:05:15;;;;;;;1.08;0.70;;;19.50;65.20;;;;;;4960788;29;20035;-68
2022/11/08 10:08:25;;;;;;;1.17;0.57;;;19.60;67.80;;;;;;4961056;29;20028;-68
2022/11/08 10:11:20;;;;;;;2.03;0.93;;;19.70;65.20;;;;;;4956256;28;20443;-68
2022/11/08 10:14:43;;;;;;;1.03;0.53;;;19.80;66.70;;;;;;4960790;29;20419;-68
2022/11/08 10:17:49;;;;;;;0.73;0.70;;;19.70;66.50;;;;;;4960485;29;20026;-68
2022/11/08 10:20:25;;;;;;;1.13;0.60;;;19.70;65.30;;;;;;4960727;28;20107;-68
2022/11/08 10:23:31;;;;;;;2.70;0.55;;;19.40;66.70;;;;;;4944173;29;20054;-68
2022/11/08 10:26:09;;;;;;;0.82;0.68;;;19.00;66.40;;;;;;4960543;29;20028;-68
2022/11/08 10:28:56;;;;;;;0.30;0.20;;;18.70;67.10;;;;;;4959892;28;20349;-68
2022/11/08 10:35:11;;;;;;;2.63;0.30;;;17.80;68.40;;;;;;4960433;29;20074;-68
2022/11/08 10:37:58;;;;;;;1.27;0.45;;;17.00;71.00;;;;;;4960141;29;20024;-68
2022/11/08 10:44:10;;;;;;;0.52;0.38;;;16.30;74.40;;;;;;4960252;29;20041;-68
2022/11/08 10:47:02;;;;;;;0.82;0.40;;;16.00;74.00;;;;;;4960078;29;20031;-68
2022/11/08 10:49:39;;;;;;;0.82;0.73;;;15.80;73.70;;;;;;4960050;28;20328;-68
2022/11/08 10:52:10;;;;;;;0.40;0.30;;;15.70;76.20;;;;;;4959921;29;20332;-68
2022/11/08 10:54:49;;;;;;;1.10;0.40;;;15.70;77.10;;;;;;4959936;29;20259;-68
2022/11/08 10:57:47;;;;;;;0.77;0.47;;;15.70;77.40;;;;;;4959875;29;20027;-68
2022/11/08 11:00:22;;;;;;;1.13;0.22;;;15.70;77.60;;;;;;4959138;28;20048;-68
2022/11/08 11:03:10;;;;;;;0.70;0.40;;;15.60;74.90;;;;;;4959714;29;20023;-68
2022/11/08 11:12:38;;;;;;;0.57;0.40;;;15.30;78.80;;;;;;4925573;29;20094;-68
2022/11/08 11:15:15;;;;;;;0.63;0.30;;;15.20;76.90;;;;;;4959588;29;20101;-68
2022/11/08 11:17:50;;;;;;;0.28;0.20;;;15.00;79.00;;;;;;4959355;29;20102;-68
2022/11/08 11:23:42;;;;;;;0.57;0.50;;;14.80;80.00;;;;;;4959724;29;20356;-68
2022/11/08 11:27:13;;;;;;;0.90;0.90;;;15.00;77.50;;;;;;4959218;29;20126;-68
2022/11/08 11:33:23;;;;;;;0.90;0.47;;;15.60;76.60;;;;;;4925821;29;20071;-68
2022/11/08 11:36:23;;;;;;;1.27;0.60;;;16.10;75.90;;;;;;4959191;29;20482;-68
2022/11/08 11:42:23;;;;;;;1.02;0.82;;;17.30;75.30;;;;;;4919475;29;20043;-68
2022/11/08 11:45:17;;;;;;;0.40;0.30;;;17.60;72.80;;;;;;4903140;29;20067;-68
2022/11/08 11:47:55;;;;;;;0.88;0.57;;;18.00;74.60;;;;;;4919030;29;20031;-68
2022/11/08 11:50:38;;;;;;;0.63;0.40;;;18.30;73.10;;;;;;4918969;29;20083;-68
2022/11/08 11:53:26;;;;;;;0.80;0.63;;;18.40;71.20;;;;;;4918871;29;20103;-68
2022/11/08 11:56:27;;;;;;;0.95;0.55;;;18.50;69.70;;;;;;4918952;29;20115;-68
2022/11/08 12:02:53;;;;;;;0.98;0.82;;;18.20;71.40;;;;;;4919263;29;20062;-68
2022/11/08 12:06:03;;;;;;;1.75;0.70;;;18.10;70.20;;;;;;4918793;29;20341;-68
2022/11/08 12:12:46;;;;;;;1.05;0.65;;;18.00;73.60;;;;;;4851234;29;20051;-68
2022/11/08 12:15:50;;;;;;;0.95;0.73;;;17.60;74.70;;;;;;4880844;29;20068;-68
2022/11/08 12:18:54;;;;;;;0.20;0.17;;;17.40;75.70;;;;;;4881015;29;20037;-68
2022/11/08 12:25:18;;;;;;;4.78;1.85;;;17.00;76.40;;;;;;4880979;29;20489;-68
2022/11/08 12:28:11;;;;;;;1.17;0.80;;;16.80;74.20;;;;;;4885091;29;20063;-68
2022/11/08 12:31:02;;;;;;;1.80;0.82;;;16.50;77.00;;;;;;4938877;29;20035;-68
2022/11/08 12:34:18;;;;;;;1.30;0.63;;;16.30;77.50;;;;;;4939197;29;20384;-68
2022/11/08 12:37:30;;;;;;;1.45;0.82;;;16.20;81.00;;;;;;4939159;29;20096;-68
2022/11/08 12:43:23;;;;;;;2.35;1.27;;;15.90;78.30;;;;;;4939391;29;20143;-68
2022/11/08 12:46:21;;;;;;;2.10;0.63;;;15.60;79.80;;;;;;4939082;29;20028;-68
2022/11/08 12:49:03;;;;;;;1.83;0.85;;;15.50;80.90;;;;;;4922180;29;20024;-70
2022/11/08 12:51:53;;;;;;;1.00;0.73;;;15.30;80.10;;;;;;4938696;29;20028;-70
2022/11/08 12:54:36;;;;;;;1.73;0.70;;;15.10;79.70;;;;;;4939280;29;20087;-70
2022/11/08 12:57:15;;;;;;;1.40;0.75;;;15.10;83.90;;;;;;4938761;29;20056;-70
2022/11/08 13:03:35;;;;;;;1.40;0.65;;;14.90;83.00;;;;;;4939078;29;20046;-70
2022/11/08 13:06:23;;;;;;;0.68;0.45;;;14.90;79.70;;;;;;4938928;29;20109;-70
2022/11/08 13:09:19;;;;;;;0.93;0.65;;;14.70;80.90;;;;;;4938731;29;20028;-70
2022/11/08 13:11:54;;;;;;;1.77;0.57;;;14.50;83.40;;;;;;4938896;29;20030;-68
2022/11/08 13:14:29;;;;;;;0.63;0.40;;;14.40;82.50;;;;;;4938888;29;20043;-68
2022/11/08 13:17:25;;;;;;;1.08;0.52;;;14.30;84.70;;;;;;4938733;29;20079;-68
2022/11/08 13:23:25;;;;;;;1.27;0.70;;;14.10;84.10;;;;;;4939376;29;20027;-68
2022/11/08 13:26:30;;;;;;;0.90;0.50;;;13.90;84.10;;;;;;4942384;29;20032;-68
2022/11/08 13:33:02;;;;;;;2.60;1.70;;;13.70;83.30;;;;;;4961493;29;20054;-68
2022/11/08 13:36:05;;;;;;;1.40;1.08;;;13.80;84.60;;;;;;4961453;29;20031;-68
2022/11/08 13:42:44;;;;;;;0.93;0.60;;;13.90;85.70;;;;;;4902764;29;20369;-68
2022/11/08 13:45:30;;;;;;;2.35;0.85;;;14.00;84.80;;;;;;4902426;29;20048;-68
2022/11/08 13:55:01;;;;;;;2.05;0.68;;;14.10;83.60;;;;;;4846454;29;20387;-68
2022/11/08 13:57:59;;;;;;;0.77;0.40;;;14.10;82.90;;;;;;4846464;29;20036;-68
2022/11/08 14:00:48;;;;;;;1.98;1.33;;;14.00;81.90;;;;;;4846108;29;20050;-68
2022/11/08 14:03:50;;;;;;;0.52;0.52;;;13.80;84.80;;;;;;4846220;29;20075;-68
2022/11/08 14:07:17;;;;;;;1.67;0.70;;;13.70;83.20;;;;;;4862734;29;20070;-68
2022/11/08 14:13:31;;;;;;;1.33;0.98;;;13.60;86.80;;;;;;4875044;29;20190;-69
2022/11/08 14:16:21;;;;;;;3.55;0.90;;;13.60;85.30;;;;;;4901810;29;20139;-70
2022/11/08 14:22:18;;;;;;;0.75;0.65;;;13.50;85.50;;;;;;4902202;29;20096;-70
2022/11/08 14:25:29;;;;;;;0.43;0.40;;;13.50;87.40;;;;;;4901733;29;20084;-70
2022/11/08 14:28:04;;;;;;;1.08;0.80;;;13.50;86.60;;;;;;4864320;29;20132;-70
2022/11/08 14:34:36;;;;;;;2.85;0.57;;;13.40;86.40;;;;;;4901582;29;20047;-70
2022/11/08 14:37:26;;;;;;;3.35;1.02;;;13.30;85.20;;;;;;4900946;29;20028;-70
2022/11/08 14:40:02;;;;;;;2.03;0.82;;;13.30;84.90;;;;;;4959906;28;20049;-70
2022/11/08 14:42:28;;;;;;;0.60;0.60;;;13.20;86.10;;;;;;4960360;29;20042;-70
2022/11/08 14:45:14;;;;;;;1.67;1.10;;;13.00;86.40;;;;;;4960208;29;20023;-70
2022/11/08 14:48:08;;;;;;;1.52;0.82;;;12.90;86.70;;;;;;4960125;29;20309;-70
2022/11/08 14:54:42;;;;;;;0.95;0.68;;;12.70;87.60;;;;;;4960326;29;20026;-70
2022/11/08 14:57:43;;;;;;;0.95;0.80;;;12.50;88.30;;;;;;4959950;29;20031;-70
2022/11/08 15:03:46;;;;;;;1.73;0.77;;;12.20;87.70;;;;;;4959878;29;20384;-70
2022/11/08 15:06:40;;;;;;;1.30;0.60;;;12.10;87.50;;;;;;4959734;29;20055;-70
2022/11/08 15:12:28;;;;;;;1.05;0.82;;;11.80;90.30;;;;;;4959762;29;20050;-70
2022/11/08 15:15:03;;;;;;;0.75;0.55;;;11.70;90.60;;;;;;4959594;29;20412;-70
2022/11/08 15:17:39;;;;;;;2.10;0.65;;;11.60;90.50;;;;;;4959429;29;20451;-70
2022/11/08 15:20:28;;;;;;;0.93;0.85;;;11.50;90.40;;;;;;4959403;28;20494;-70
2022/11/08 15:23:38;;;;;;;1.08;0.95;;;11.40;92.00;;;;;;4959532;29;20086;-70
2022/11/08 15:27:05;;;;;;;1.27;0.55;;;11.30;93.10;;;;;;4959407;29;20054;-70
2022/11/08 15:33:35;;;;;;;2.67;0.98;;;11.00;93.00;;;;;;4959763;29;20071;-70
2022/11/08 15:36:26;;;;;;;1.20;1.10;;;10.90;93.20;;;;;;4959046;29;20082;-70
2022/11/08 15:39:04;;;;;;;1.10;0.68;;;10.80;92.80;;;;;;4959124;29;20039;-70
2022/11/08 15:45:27;;;;;;;2.47;0.80;;;10.40;93.40;;;;;;4959344;29;20029;-70
2022/11/08 15:48:32;;;;;;;0.63;0.63;;;10.30;93.50;;;;;;4958703;28;20078;-70
2022/11/08 15:54:28;;;;;;;0.77;0.45;;;10.20;93.30;;;;;;4959185;29;20026;-70
2022/11/08 15:57:04;;;;;;;2.03;1.13;;;10.10;93.60;;;;;;4958909;29;20114;-70
2022/11/08 16:02:52;;;;;;;1.00;0.60;;;9.80;95.20;;;;;;4959169;29;20042;-70
2022/11/08 16:05:38;;;;;;;2.30;1.23;;;9.70;96.10;;;;;;4958500;29;20066;-70
2022/11/08 16:08:16;;;;;;;0.83;0.57;;;9.60;95.60;;;;;;4958686;29;20027;-70
2022/11/08 16:14:18;;;;;;;0.68;0.63;;;9.60;95.10;;;;;;4958915;29;20332;-70
2022/11/08 16:16:53;;;;;;;0.40;0.40;;;9.60;95.30;;;;;;4941578;29;20110;-70
2022/11/08 16:22:40;;;;;;;1.48;0.85;;;9.50;96.30;;;;;;4958964;29;20090;-70
2022/11/08 16:25:15;;;;;;;2.60;0.65;;;9.30;96.90;;;;;;4958296;29;20365;-70
2022/11/08 16:28:02;;;;;;;0.00;0.00;;;9.30;96.60;;;;;;4958170;29;20428;-70
2022/11/08 16:34:09;;;;;;;2.92;1.10;;;9.20;98.00;;;;;;4958686;29;20042;-70
2022/11/08 16:36:46;;;;;;;0.65;0.65;;;9.20;98.00;;;;;;4958266;29;20075;-69
2022/11/08 16:42:34;;;;;;;0.80;0.80;;;9.40;97.50;;;;;;4958637;29;20147;-69
2022/11/08 16:45:16;;;;;;;0.32;0.32;;;9.50;96.90;;;;;;4958296;29;20442;-70
2022/11/08 16:47:51;;;;;;;3.92;1.15;;;9.50;96.70;;;;;;4958160;29;20031;-70
2022/11/08 16:50:26;;;;;;;1.92;1.50;;;9.50;96.70;;;;;;4958099;28;20027;-70
2022/11/08 16:53:01;;;;;;;2.20;0.90;;;9.40;97.20;;;;;;4941155;29;20309;-70
2022/11/08 16:55:35;;;;;;;3.05;0.57;;;9.40;97.20;;;;;;4958312;29;20348;-70
2022/11/08 16:58:10;;;;;;;2.83;0.50;;;9.30;97.20;;;;;;4958138;28;20024;-70
2022/11/08 17:04:13;;;;;;;0.70;0.52;;;9.30;97.70;;;;;;4962296;29;20046;-70
2022/11/08 17:06:48;;;;;;;0.90;0.70;;;9.20;97.50;;;;;;4961941;29;20023;-70
2022/11/08 17:12:35;;;;;;;2.35;1.55;;;9.10;98.00;;;;;;4961964;29;20058;-70
2022/11/08 17:15:24;;;;;;;1.55;0.80;;;9.00;98.00;;;;;;4944908;29;20483;-69
2022/11/08 17:17:59;;;;;;;2.00;1.80;;;9.00;98.00;;;;;;4961748;29;20028;-70
2022/11/08 17:23:59;;;;;;;1.52;0.60;;;9.10;98.00;;;;;;4961976;29;20026;-69
2022/11/08 17:26:34;;;;;;;1.00;0.88;;;9.10;98.00;;;;;;4961707;29;20028;-70
2022/11/08 17:29:10;;;;;;;1.17;0.45;;;9.00;98.00;;;;;;4961361;28;20324;-69
2022/11/08 17:31:35;;;;;;;1.13;0.60;;;9.00;98.00;;;;;;4961599;29;20317;-69
2022/11/08 17:34:19;;;;;;;1.25;0.70;;;8.90;98.00;;;;;;4961501;29;20075;-70
2022/11/08 17:36:54;;;;;;;2.45;1.00;;;8.90;98.00;;;;;;4961388;29;20027;-70
2022/11/08 17:39:28;;;;;;;9.90;0.93;;;8.80;98.00;;;;;;4961339;28;20110;-70
2022/11/08 17:41:54;;;;;;;1.25;0.85;;;8.80;98.00;;;;;;4961371;29;20078;-70